Hlavní strana
METAR-TAF:

METAR-TAF

Letiště :

Armilla

Granada, Španělsko

zeměpisná šířka: 37-08N, zeměpisná délka: 003-38-08W, výška: 700 m

Aktuální stav počasí

Zpráva byla vytvořena před 11 hodinami a 14 minutami, v 13:00 UTC
vítr z různých směrů 2 kt
Teplota 14°C
Vlhkost vzduchu 55%
Tlak 1023 hPa
Viditelnost 10 km a více
Skoro jasno ve výšce 6000 ft

METAR: LEGA 071300Z VRB02KT 9999 FEW060 14/05 Q1023

Čas: 01:14 (00:14 UTC)

Předpověď počasí

Zpráva byla vytvořena před 10 hodinami a 14 minutami, v 14:00 UTC
Předpověď platná od 07 v 15 UTC do 07 v 24 UTC
Západoseverozápadní vítr 5 kt
Viditelnost 10 km a více
Skoro jasno ve výšce 6000 ft

TAF: LEGA 071400Z 0715/0724 29005KT 9999 FEW060

Stav a předpovědi počasí z více než 4 000 letišť (zprávy METAR a TAF).

Červené a žluté tečky na mapě představují dostupné meteorologické stanice.

Když kurzor umístíte na tečku, zobrazí se název stanice.

Pak kliknutím zobrazíte stav a předpověď počasí.

Chcete-li změnit mapu, kliknutím na zelené tlačítko se znaménkem +mapu přiblížíte, kliknutím na zelené tlačítko se znaménkem – mapu oddálíte a kliknutím na zelené šipky přejdete na sousední mapy.


METAR-TAF: